createdAt,value
2022-08-03T00:01:10.826Z,27.76
2022-08-03T00:06:54.315Z,27.69
2022-08-03T00:12:37.628Z,27.67
2022-08-03T00:18:21.308Z,27.63
2022-08-03T00:24:05.187Z,27.56
2022-08-03T00:29:57.716Z,27.51
2022-08-03T00:35:42.635Z,27.49
2022-08-03T00:41:33.267Z,27.43
2022-08-03T00:47:16.536Z,27.4
2022-08-03T00:53:00.578Z,27.33
2022-08-03T00:58:45.054Z,27.26
2022-08-03T01:04:28.598Z,27.2
2022-08-03T01:10:17.142Z,27.16
2022-08-03T01:16:02.765Z,27.11
2022-08-03T01:21:52.327Z,27.12
2022-08-03T01:27:41.934Z,27.08
2022-08-03T01:33:28.446Z,27.04
2022-08-03T01:39:12.084Z,26.97
2022-08-03T01:44:57.174Z,26.92
2022-08-03T01:50:40.822Z,26.88
2022-08-03T01:56:25.735Z,26.84
2022-08-03T02:02:15.732Z,26.78
2022-08-03T02:08:17.822Z,26.78
2022-08-03T02:14:03.582Z,26.73
2022-08-03T02:19:47.539Z,26.71
2022-08-03T02:25:32.048Z,26.66
2022-08-03T02:31:19.031Z,26.61
2022-08-03T02:37:04.236Z,26.57
2022-08-03T02:42:49.224Z,26.53
2022-08-03T02:48:34.342Z,26.53
2022-08-03T02:54:19.569Z,26.47
2022-08-03T03:00:04.150Z,26.41
2022-08-03T03:05:51.058Z,26.37
2022-08-03T03:11:46.592Z,26.31
2022-08-03T03:17:30.960Z,26.21
2022-08-03T03:23:14.463Z,26.15
2022-08-03T03:28:58.019Z,26.09
2022-08-03T03:34:42.186Z,26.07
2022-08-03T03:40:28.549Z,26.11
2022-08-03T03:46:12.155Z,26.02
2022-08-03T03:51:56.301Z,26.01
2022-08-03T03:57:39.747Z,25.95
2022-08-03T04:03:23.213Z,25.9
2022-08-03T04:09:08.535Z,25.88
2022-08-03T04:14:54.139Z,25.85
2022-08-03T04:20:38.655Z,25.84
2022-08-03T04:26:23.943Z,25.81
2022-08-03T04:32:07.832Z,25.8
2022-08-03T04:37:52.058Z,25.79
2022-08-03T04:43:35.853Z,25.79
2022-08-03T04:49:19.887Z,25.8
2022-08-03T04:55:04.260Z,25.81
2022-08-03T05:00:47.837Z,25.81
2022-08-03T05:06:32.852Z,25.89
2022-08-03T05:12:32.133Z,25.92
2022-08-03T05:18:15.874Z,25.95
2022-08-03T05:23:59.431Z,25.9
2022-08-03T05:29:42.786Z,25.75
2022-08-03T05:35:56.371Z,25.52
2022-08-03T05:41:36.744Z,25.42
2022-08-03T05:47:20.129Z,25.46
2022-08-03T05:53:03.511Z,25.52
2022-08-03T05:58:47.900Z,25.6
2022-08-03T06:04:31.533Z,25.67
2022-08-03T06:10:34.812Z,25.73
2022-08-03T06:16:18.951Z,25.84
2022-08-03T06:22:02.338Z,25.93
2022-08-03T06:27:46.810Z,25.97
2022-08-03T06:33:48.259Z,26.03
2022-08-03T06:39:33.578Z,26.13
2022-08-03T06:45:16.936Z,26.21
2022-08-03T06:51:00.607Z,26.32
2022-08-03T06:56:48.451Z,26.48
2022-08-03T07:02:32.000Z,26.62
2022-08-03T07:08:15.603Z,26.77
2022-08-03T07:14:13.817Z,26.95
2022-08-03T07:19:57.255Z,27.15
2022-08-03T07:25:40.919Z,27.28
2022-08-03T07:31:24.211Z,27.44
2022-08-03T07:37:12.619Z,27.63
2022-08-03T07:42:56.260Z,27.79
2022-08-03T07:48:39.930Z,28
2022-08-03T07:54:23.327Z,28.16
2022-08-03T08:00:12.150Z,28.33
2022-08-03T08:05:55.660Z,28.55
2022-08-03T08:11:40.030Z,28.75
2022-08-03T08:17:23.904Z,28.96
2022-08-03T08:23:08.940Z,29.16
2022-08-03T08:29:11.592Z,29.37
2022-08-03T08:34:55.304Z,29.51
2022-08-03T08:40:38.775Z,29.66
2022-08-03T08:46:23.715Z,29.8
2022-08-03T08:52:22.074Z,29.95
2022-08-03T08:58:11.519Z,30.1
2022-08-03T09:04:05.881Z,30.2
2022-08-03T09:10:04.735Z,30.34
2022-08-03T09:16:01.078Z,30.49
2022-08-03T09:21:45.214Z,30.64
2022-08-03T09:27:28.906Z,30.74
2022-08-03T09:33:16.397Z,30.86
2022-08-03T09:39:05.576Z,30.98
2022-08-03T09:44:50.171Z,31.09
2022-08-03T09:50:38.738Z,31.21
2022-08-03T09:56:46.723Z,31.25
2022-08-03T10:02:30.322Z,31.33
2022-08-03T10:08:18.190Z,31.42
2022-08-03T10:14:02.228Z,31.51
2022-08-03T10:19:45.946Z,31.57
2022-08-03T10:25:33.084Z,31.66
2022-08-03T10:31:18.175Z,31.73
2022-08-03T10:37:03.117Z,31.83
2022-08-03T10:42:46.792Z,31.96
2022-08-03T10:48:31.211Z,32.15
2022-08-03T10:54:25.706Z,32.3
2022-08-03T11:00:12.128Z,32.47
2022-08-03T11:06:00.465Z,32.56
2022-08-03T11:11:44.293Z,32.67
2022-08-03T11:17:28.111Z,32.47
2022-08-03T11:23:12.016Z,32.78
2022-08-03T11:29:00.193Z,32.9
2022-08-03T11:34:54.343Z,33.13
2022-08-03T11:40:39.086Z,33.33
2022-08-03T11:46:28.318Z,33.45
2022-08-03T11:52:12.515Z,33.55
2022-08-03T11:59:00.486Z,33.6
2022-08-03T12:04:02.700Z,33.72
2022-08-03T12:09:51.087Z,33.75
2022-08-03T12:15:35.013Z,33.8
2022-08-03T12:21:18.465Z,33.89
2022-08-03T12:27:01.862Z,34
2022-08-03T12:32:46.406Z,34.16
2022-08-03T12:38:30.307Z,33.78
2022-08-03T12:44:25.989Z,33.61
2022-08-03T12:50:14.788Z,33.98
2022-08-03T12:56:05.999Z,34.19
2022-08-03T13:01:55.028Z,34.35
2022-08-03T13:07:45.645Z,34.36
2022-08-03T13:13:41.998Z,34.69
2022-08-03T13:19:26.008Z,34.8
2022-08-03T13:25:09.610Z,34.81
2022-08-03T13:30:53.123Z,34.75
2022-08-03T13:36:59.367Z,34.5
2022-08-03T13:42:40.264Z,35.04
2022-08-03T13:48:34.762Z,35.21
2022-08-03T13:54:18.990Z,35.35
2022-08-03T14:00:03.174Z,35.4
2022-08-03T14:05:47.503Z,35.46
2022-08-03T14:12:04.255Z,35.55
2022-08-03T14:17:37.502Z,35.65
2022-08-03T14:23:32.032Z,35.88
2022-08-03T14:29:16.556Z,35.39
2022-08-03T14:35:00.013Z,35.08
2022-08-03T14:40:44.669Z,35.05
2022-08-03T14:46:28.398Z,35.53
2022-08-03T14:52:12.187Z,35.73
2022-08-03T14:57:55.775Z,35.89
2022-08-03T15:03:39.075Z,35.38
2022-08-03T15:09:23.791Z,35.09
2022-08-03T15:15:08.108Z,35.14
2022-08-03T15:20:51.615Z,35.66
2022-08-03T15:26:39.331Z,35.89
2022-08-03T15:32:25.573Z,35.98
2022-08-03T15:38:15.193Z,36.02
2022-08-03T15:43:59.040Z,35.58
2022-08-03T15:49:50.640Z,35.93
2022-08-03T15:55:34.175Z,36.18
2022-08-03T16:01:19.712Z,36.51
2022-08-03T16:07:03.658Z,36.63
2022-08-03T16:12:47.593Z,36.82
2022-08-03T16:18:31.257Z,37.07
2022-08-03T16:24:17.186Z,37.33
2022-08-03T16:30:10.920Z,37.6
2022-08-03T16:35:55.566Z,38.01
2022-08-03T16:41:53.294Z,38.53
2022-08-03T16:47:42.379Z,38.69
2022-08-03T16:53:33.366Z,39.07
2022-08-03T16:59:32.837Z,39.67
2022-08-03T17:05:24.548Z,39.99
2022-08-03T17:11:23.055Z,39.98
2022-08-03T17:17:20.863Z,40.37
2022-08-03T17:23:10.782Z,40.83
2022-08-03T17:29:16.491Z,41
2022-08-03T17:35:06.591Z,40.94
2022-08-03T17:40:53.266Z,40.46
2022-08-03T17:46:41.578Z,39.33
2022-08-03T17:52:34.173Z,38.36
2022-08-03T17:58:25.344Z,37.64
2022-08-03T18:04:12.101Z,37.09
2022-08-03T18:10:05.431Z,36.52
2022-08-03T18:15:59.750Z,35.98
2022-08-03T18:22:02.406Z,35.5
2022-08-03T18:27:47.677Z,35.03
2022-08-03T18:34:16.143Z,34.66
2022-08-03T18:39:38.949Z,34.38
2022-08-03T18:45:56.556Z,34.07
2022-08-03T18:51:43.106Z,33.86
2022-08-03T18:57:35.359Z,33.58
2022-08-03T19:03:25.197Z,33.32
2022-08-03T19:09:27.770Z,33.06
2022-08-03T19:21:17.605Z,32.36
2022-08-03T19:27:04.319Z,32.14
2022-08-03T19:32:54.050Z,31.96
2022-08-03T19:38:38.598Z,31.63
2022-08-03T19:44:29.117Z,31.3
2022-08-03T19:50:15.595Z,31.02
2022-08-03T19:55:59.594Z,30.76
2022-08-03T20:01:50.484Z,30.52
2022-08-03T20:07:33.672Z,30.28
2022-08-03T20:13:20.047Z,30.07
2022-08-03T20:19:14.360Z,29.86
2022-08-03T20:25:02.563Z,29.78
2022-08-03T20:30:46.509Z,29.76
2022-08-03T20:36:35.204Z,29.62
2022-08-03T20:42:21.005Z,29.72
2022-08-03T20:48:06.162Z,29.83
2022-08-03T20:53:59.909Z,29.92
2022-08-03T20:59:59.916Z,29.98
2022-08-03T21:05:48.155Z,29.98
2022-08-03T21:11:41.379Z,29.97
2022-08-03T21:13:06.378Z,32.71
2022-08-03T21:17:40.306Z,29.97
2022-08-03T21:23:35.310Z,29.96
2022-08-03T21:29:28.804Z,29.94
2022-08-03T21:35:12.838Z,29.86
2022-08-03T21:40:57.795Z,29.82
2022-08-03T21:46:42.091Z,29.79
2022-08-03T21:52:26.059Z,29.76
2022-08-03T21:58:12.652Z,29.72
2022-08-03T22:03:56.271Z,29.71
2022-08-03T22:09:50.261Z,29.67
2022-08-03T22:15:34.152Z,29.64
2022-08-03T22:21:27.805Z,29.61
2022-08-03T22:27:19.001Z,29.59
2022-08-03T22:33:04.170Z,29.58
2022-08-03T22:38:54.838Z,29.47
2022-08-03T22:44:38.904Z,29.39
2022-08-03T22:50:30.923Z,29.33
2022-08-03T22:56:16.610Z,29.28
2022-08-03T23:02:00.919Z,29.21
2022-08-03T23:08:02.353Z,29.17
2022-08-03T23:13:51.945Z,29.14
2022-08-03T23:19:39.744Z,29.13
2022-08-03T23:25:28.287Z,29.05
2022-08-03T23:31:13.472Z,28.99
2022-08-03T23:36:56.902Z,28.93
2022-08-03T23:42:40.785Z,28.89
2022-08-03T23:48:24.602Z,28.86
2022-08-03T23:54:12.493Z,28.81
